Time;durP1;ratioP1;P1;durP2;ratioP2;P2;SDS_P1;SDS_P2;PMS_P1;PMS_P2;Temp;Humidity;BMP_temperature;BMP_pressure;BME280_temperature;BME280_humidity;BME280_pressure;Samples;Min_cycle;Max_cycle;Signal;HPM_P1;HPM_P2
2022/11/25 00:00:24;;;;;;;31.50;22.03;;;;;;;;;;5094100;28;20884;-58
2022/11/25 00:02:51;;;;;;;29.25;19.25;;;;;;;;;;5094095;28;20427;-58
2022/11/25 00:05:18;;;;;;;28.37;20.20;;;;;;;;;;5093908;28;20251;-59
2022/11/25 00:07:45;;;;;;;34.60;22.30;;;;;;;;;;5094074;28;21015;-58
2022/11/25 00:10:12;;;;;;;29.90;19.67;;;;;;;;;;5094001;28;20446;-59
2022/11/25 00:12:39;;;;;;;29.80;20.47;;;;;;;;;;5093974;28;20630;-58
2022/11/25 00:15:07;;;;;;;30.77;19.45;;;;;;;;;;5093833;28;20454;-58
2022/11/25 00:17:34;;;;;;;30.67;20.60;;;;;;;;;;5093748;28;20648;-59
2022/11/25 00:20:04;;;;;;;29.30;19.90;;;;;;;;;;5092723;28;20453;-58
2022/11/25 00:22:31;;;;;;;31.77;21.80;;;;;;;;;;5093747;28;20492;-60
2022/11/25 00:24:58;;;;;;;30.00;20.57;;;;;;;;;;5093742;28;20824;-58
2022/11/25 00:27:25;;;;;;;28.63;19.40;;;;;;;;;;5093609;28;20449;-59
2022/11/25 00:29:52;;;;;;;28.43;19.87;;;;;;;;;;5093571;28;20187;-58
2022/11/25 00:32:20;;;;;;;32.00;20.63;;;;;;;;;;5093459;28;20819;-59
2022/11/25 00:34:47;;;;;;;32.10;20.57;;;;;;;;;;5093361;28;20477;-58
2022/11/25 00:37:14;;;;;;;27.70;19.52;;;;;;;;;;5093512;28;20548;-59
2022/11/25 00:39:41;;;;;;;32.10;21.87;;;;;;;;;;5093414;28;20195;-58
2022/11/25 00:44:54;;;;;;;29.03;20.03;;;;;;;;;;5093275;28;20456;-59
2022/11/25 00:47:22;;;;;;;29.10;20.55;;;;;;;;;;5093305;28;20480;-58
2022/11/25 00:49:50;;;;;;;31.20;20.53;;;;;;;;;;5093386;28;20285;-59
2022/11/25 00:52:18;;;;;;;28.83;19.48;;;;;;;;;;5093274;28;20473;-58
2022/11/25 00:54:46;;;;;;;25.83;17.63;;;;;;;;;;5093234;28;20223;-58
2022/11/25 00:57:13;;;;;;;30.50;21.03;;;;;;;;;;5093309;28;20203;-58
2022/11/25 00:59:40;;;;;;;31.13;20.65;;;;;;;;;;5093010;28;20459;-58
2022/11/25 01:02:07;;;;;;;29.10;20.83;;;;;;;;;;5093124;28;20225;-59
2022/11/25 01:04:35;;;;;;;31.75;21.25;;;;;;;;;;5093421;28;20866;-59
2022/11/25 01:07:02;;;;;;;31.00;21.37;;;;;;;;;;5093116;28;20299;-59
2022/11/25 01:09:29;;;;;;;29.63;19.88;;;;;;;;;;5092845;28;20944;-58
2022/11/25 01:11:56;;;;;;;32.75;20.35;;;;;;;;;;5092864;28;20195;-59
2022/11/25 01:14:24;;;;;;;29.83;19.77;;;;;;;;;;5093109;28;20282;-58
2022/11/25 01:16:51;;;;;;;27.97;20.03;;;;;;;;;;5093138;28;20450;-58
2022/11/25 01:19:18;;;;;;;28.20;18.70;;;;;;;;;;5093010;28;20453;-59
2022/11/25 01:21:46;;;;;;;28.27;18.40;;;;;;;;;;5092859;28;20248;-58
2022/11/25 01:24:14;;;;;;;26.10;17.90;;;;;;;;;;5092987;28;20805;-58
2022/11/25 01:26:41;;;;;;;27.00;19.60;;;;;;;;;;5092806;28;20810;-59
2022/11/25 01:29:12;;;;;;;32.17;18.15;;;;;;;;;;5093076;28;20538;-59
2022/11/25 01:31:39;;;;;;;28.20;19.03;;;;;;;;;;5096435;28;20279;-58
2022/11/25 01:34:08;;;;;;;27.97;18.80;;;;;;;;;;5096981;28;20449;-58
2022/11/25 01:36:35;;;;;;;31.27;21.20;;;;;;;;;;5096943;28;20447;-59
2022/11/25 01:39:03;;;;;;;29.13;20.13;;;;;;;;;;5096729;28;20558;-59
2022/11/25 01:41:31;;;;;;;31.70;20.43;;;;;;;;;;5097100;28;20474;-59
2022/11/25 01:44:05;;;;;;;30.30;20.90;;;;;;;;;;5096859;28;20475;-59
2022/11/25 01:46:38;;;;;;;25.30;18.43;;;;;;;;;;5096829;28;20621;-58
2022/11/25 01:49:07;;;;;;;28.70;20.47;;;;;;;;;;5056342;28;20446;-59
2022/11/25 01:51:37;;;;;;;27.63;18.97;;;;;;;;;;5056265;28;20539;-59
2022/11/25 01:54:06;;;;;;;27.97;18.70;;;;;;;;;;5056378;28;20622;-58
2022/11/25 01:56:35;;;;;;;27.73;18.27;;;;;;;;;;5056310;28;20451;-59
2022/11/25 01:59:02;;;;;;;27.17;18.83;;;;;;;;;;5056281;28;20889;-59
2022/11/25 02:01:29;;;;;;;31.60;19.47;;;;;;;;;;5056299;28;20467;-58
2022/11/25 02:03:57;;;;;;;27.07;18.40;;;;;;;;;;5056084;28;20476;-58
2022/11/25 02:06:25;;;;;;;29.73;18.20;;;;;;;;;;5056018;28;20456;-59
2022/11/25 02:08:54;;;;;;;29.65;20.40;;;;;;;;;;5056204;28;20200;-59
2022/11/25 02:11:24;;;;;;;25.47;17.90;;;;;;;;;;5056094;28;20189;-58
2022/11/25 02:13:52;;;;;;;28.95;19.02;;;;;;;;;;5056007;28;20458;-58
2022/11/25 02:16:18;;;;;;;28.83;19.67;;;;;;;;;;5056082;28;20671;-59
2022/11/25 02:18:45;;;;;;;27.08;19.98;;;;;;;;;;5055794;28;20451;-59
2022/11/25 02:21:14;;;;;;;28.08;19.05;;;;;;;;;;5055916;28;20194;-59
2022/11/25 02:23:45;;;;;;;26.27;17.53;;;;;;;;;;5055684;28;20642;-58
2022/11/25 02:26:13;;;;;;;29.30;19.50;;;;;;;;;;5055898;28;20943;-59
2022/11/25 02:28:40;;;;;;;26.67;17.30;;;;;;;;;;5055685;28;20196;-59
2022/11/25 02:31:08;;;;;;;29.80;19.13;;;;;;;;;;5055586;28;20939;-58
2022/11/25 02:33:35;;;;;;;29.60;17.90;;;;;;;;;;5055766;28;20456;-59
2022/11/25 02:36:03;;;;;;;28.23;18.80;;;;;;;;;;5055713;28;20451;-59
2022/11/25 02:38:32;;;;;;;26.00;17.73;;;;;;;;;;5055580;28;20450;-59
2022/11/25 02:41:03;;;;;;;27.60;18.50;;;;;;;;;;5055556;28;20202;-58
2022/11/25 02:43:31;;;;;;;29.43;19.83;;;;;;;;;;5054597;28;20574;-58
2022/11/25 02:46:00;;;;;;;26.27;19.00;;;;;;;;;;5055382;28;20535;-58
2022/11/25 02:48:27;;;;;;;28.20;18.95;;;;;;;;;;5086480;28;20556;-59
2022/11/25 02:50:54;;;;;;;28.27;17.45;;;;;;;;;;5095663;28;20730;-59
2022/11/25 02:53:22;;;;;;;27.50;19.53;;;;;;;;;;5095568;28;20195;-59
2022/11/25 02:55:48;;;;;;;27.47;18.67;;;;;;;;;;5095387;28;20450;-59
2022/11/25 02:58:16;;;;;;;27.23;18.10;;;;;;;;;;5095265;28;20556;-59
2022/11/25 03:00:44;;;;;;;29.07;19.67;;;;;;;;;;5095741;28;20507;-58
2022/11/25 03:03:12;;;;;;;27.47;18.80;;;;;;;;;;5095341;28;20840;-59
2022/11/25 03:05:38;;;;;;;29.27;19.58;;;;;;;;;;5095137;28;20458;-59
2022/11/25 03:08:05;;;;;;;26.90;18.45;;;;;;;;;;5095212;28;20286;-58
2022/11/25 03:10:32;;;;;;;26.77;18.40;;;;;;;;;;5095185;28;20227;-58
2022/11/25 03:12:58;;;;;;;27.07;18.20;;;;;;;;;;5094975;28;20828;-59
2022/11/25 03:15:26;;;;;;;26.23;18.50;;;;;;;;;;5095367;28;20555;-59
2022/11/25 03:17:54;;;;;;;28.43;17.67;;;;;;;;;;5095165;28;20829;-59
2022/11/25 03:20:21;;;;;;;25.27;17.43;;;;;;;;;;5095055;28;20457;-59
2022/11/25 03:22:48;;;;;;;23.30;16.10;;;;;;;;;;5094810;28;20484;-59
2022/11/25 03:25:16;;;;;;;25.65;16.92;;;;;;;;;;5094763;28;20544;-59
2022/11/25 03:27:43;;;;;;;24.67;17.97;;;;;;;;;;5094789;28;20279;-58
2022/11/25 03:30:11;;;;;;;27.80;19.10;;;;;;;;;;5094861;28;20459;-59
2022/11/25 03:32:38;;;;;;;27.25;17.00;;;;;;;;;;5094831;28;20453;-59
2022/11/25 03:35:07;;;;;;;28.17;18.43;;;;;;;;;;5094743;28;20198;-58
2022/11/25 03:37:34;;;;;;;23.50;16.52;;;;;;;;;;5094581;28;20445;-58
2022/11/25 03:40:01;;;;;;;23.60;15.63;;;;;;;;;;5094457;28;20195;-59
2022/11/25 03:42:28;;;;;;;23.70;16.97;;;;;;;;;;5094646;28;20302;-59
2022/11/25 03:44:54;;;;;;;26.90;18.63;;;;;;;;;;5094870;28;20449;-59
2022/11/25 03:47:22;;;;;;;23.63;16.80;;;;;;;;;;5094255;28;20221;-59
2022/11/25 03:49:49;;;;;;;31.40;14.23;;;;;;;;;;5094369;28;20185;-59
2022/11/25 03:52:17;;;;;;;31.80;14.20;;;;;;;;;;5094308;28;20823;-59
2022/11/25 03:54:44;;;;;;;29.97;13.10;;;;;;;;;;5094245;28;20456;-59
2022/11/25 03:57:12;;;;;;;27.37;12.10;;;;;;;;;;5094389;28;20450;-59
2022/11/25 03:59:39;;;;;;;32.38;12.88;;;;;;;;;;5094267;28;20454;-59
2022/11/25 04:02:06;;;;;;;24.87;16.67;;;;;;;;;;5094095;28;20208;-59
2022/11/25 04:04:33;;;;;;;25.80;17.70;;;;;;;;;;5094104;28;20544;-59
2022/11/25 04:07:00;;;;;;;26.33;17.17;;;;;;;;;;5093945;28;20934;-59
2022/11/25 04:09:28;;;;;;;26.70;19.10;;;;;;;;;;5094200;28;20198;-59
2022/11/25 04:14:39;;;;;;;25.20;17.90;;;;;;;;;;5094178;28;20194;-59
2022/11/25 04:17:06;;;;;;;27.87;16.70;;;;;;;;;;5093876;28;20191;-59
2022/11/25 04:19:33;;;;;;;22.97;15.87;;;;;;;;;;5093668;28;20544;-59
2022/11/25 04:22:01;;;;;;;23.13;16.17;;;;;;;;;;5094164;28;20448;-59
2022/11/25 04:24:29;;;;;;;23.37;16.33;;;;;;;;;;5093795;28;20550;-59
2022/11/25 04:26:56;;;;;;;22.83;16.27;;;;;;;;;;5093896;28;20453;-59
2022/11/25 04:29:23;;;;;;;29.60;22.85;;;;;;;;;;5093624;28;20453;-59
2022/11/25 04:31:51;;;;;;;28.25;19.48;;;;;;;;;;5093551;28;20291;-59
2022/11/25 04:34:18;;;;;;;30.58;21.30;;;;;;;;;;5094017;28;20197;-59
2022/11/25 04:36:45;;;;;;;26.30;20.00;;;;;;;;;;5093605;28;20281;-59
2022/11/25 04:39:12;;;;;;;25.02;20.10;;;;;;;;;;5093594;28;20456;-58
2022/11/25 04:41:40;;;;;;;22.48;19.98;;;;;;;;;;5093440;28;20195;-59
2022/11/25 04:44:07;;;;;;;27.55;20.00;;;;;;;;;;5093334;28;20254;-58
2022/11/25 04:46:37;;;;;;;27.87;20.27;;;;;;;;;;5093306;28;20294;-59
2022/11/25 04:49:04;;;;;;;24.58;16.92;;;;;;;;;;5093514;28;20449;-59
2022/11/25 04:51:32;;;;;;;23.48;16.63;;;;;;;;;;5093432;28;20279;-58
2022/11/25 04:53:59;;;;;;;22.90;17.10;;;;;;;;;;5093375;28;20203;-59
2022/11/25 04:56:25;;;;;;;29.45;15.70;;;;;;;;;;5093199;28;21048;-58
2022/11/25 05:01:39;;;;;;;23.90;15.83;;;;;;;;;;5093236;28;20589;-59
2022/11/25 05:04:06;;;;;;;39.13;17.02;;;;;;;;;;5093783;28;20517;-60
2022/11/25 05:06:34;;;;;;;23.50;16.60;;;;;;;;;;5092882;28;20199;-60
2022/11/25 05:09:01;;;;;;;25.13;16.55;;;;;;;;;;5093321;28;21016;-60
2022/11/25 05:11:28;;;;;;;22.08;15.48;;;;;;;;;;5093469;28;20219;-60
2022/11/25 05:13:57;;;;;;;23.67;15.47;;;;;;;;;;5093495;28;20195;-60
2022/11/25 05:16:24;;;;;;;27.42;17.77;;;;;;;;;;5093816;28;20502;-60
2022/11/25 05:18:51;;;;;;;24.03;15.73;;;;;;;;;;5093471;28;20191;-60
2022/11/25 05:21:19;;;;;;;25.98;16.40;;;;;;;;;;5093587;28;20519;-60
2022/11/25 05:23:46;;;;;;;24.48;16.13;;;;;;;;;;5093416;28;20258;-60
2022/11/25 05:26:13;;;;;;;26.60;16.70;;;;;;;;;;5093001;28;20548;-60
2022/11/25 05:28:40;;;;;;;31.23;19.50;;;;;;;;;;5093225;28;20456;-61
2022/11/25 05:31:09;;;;;;;27.80;16.97;;;;;;;;;;5093490;28;20287;-60
2022/11/25 05:33:36;;;;;;;32.33;18.33;;;;;;;;;;5093585;28;20457;-60
2022/11/25 05:36:04;;;;;;;22.35;15.82;;;;;;;;;;5093562;28;20949;-60
2022/11/25 05:38:32;;;;;;;27.73;18.30;;;;;;;;;;5093202;28;20201;-61
2022/11/25 05:41:01;;;;;;;24.70;16.90;;;;;;;;;;5093094;28;20227;-60
2022/11/25 05:43:28;;;;;;;26.10;18.27;;;;;;;;;;5093220;28;20233;-60
2022/11/25 05:45:58;;;;;;;22.30;14.98;;;;;;;;;;5093383;28;20817;-60
2022/11/25 05:48:26;;;;;;;25.13;15.90;;;;;;;;;;5092977;28;20724;-59
2022/11/25 05:50:54;;;;;;;28.20;15.60;;;;;;;;;;5093128;28;20639;-59
2022/11/25 05:53:21;;;;;;;26.60;16.27;;;;;;;;;;5093069;28;20472;-59
2022/11/25 05:55:54;;;;;;;25.95;16.73;;;;;;;;;;5092971;28;20452;-59
2022/11/25 05:58:21;;;;;;;24.40;16.00;;;;;;;;;;5092929;28;20191;-59
2022/11/25 06:00:48;;;;;;;29.93;17.60;;;;;;;;;;5092997;28;21024;-59
2022/11/25 06:03:15;;;;;;;24.93;15.87;;;;;;;;;;5092610;28;20477;-59
2022/11/25 06:05:43;;;;;;;27.07;16.30;;;;;;;;;;5092498;28;20499;-59
2022/11/25 06:08:10;;;;;;;24.42;17.23;;;;;;;;;;5092637;28;20448;-59
2022/11/25 06:10:39;;;;;;;23.90;15.85;;;;;;;;;;5092757;28;20234;-59
2022/11/25 06:13:06;;;;;;;24.60;15.10;;;;;;;;;;5093023;28;20195;-59
2022/11/25 06:15:33;;;;;;;24.67;15.73;;;;;;;;;;5092682;28;20244;-59
2022/11/25 06:18:00;;;;;;;23.55;14.80;;;;;;;;;;5096364;28;20195;-59
2022/11/25 06:20:27;;;;;;;25.35;16.88;;;;;;;;;;5096263;28;20204;-59
2022/11/25 06:22:56;;;;;;;28.88;16.70;;;;;;;;;;5096246;28;20211;-59
2022/11/25 06:25:22;;;;;;;28.55;17.20;;;;;;;;;;5096473;28;20246;-59
2022/11/25 06:27:50;;;;;;;25.08;16.10;;;;;;;;;;5096434;28;20282;-59
2022/11/25 06:30:17;;;;;;;24.90;15.30;;;;;;;;;;5096287;28;20651;-59
2022/11/25 06:32:44;;;;;;;28.70;17.93;;;;;;;;;;5096588;28;20802;-59
2022/11/25 06:35:11;;;;;;;26.10;16.00;;;;;;;;;;5096320;28;20451;-59
2022/11/25 06:37:39;;;;;;;22.93;15.07;;;;;;;;;;5095931;28;20493;-59
2022/11/25 06:40:08;;;;;;;26.13;16.40;;;;;;;;;;5096071;28;20875;-60
2022/11/25 06:42:35;;;;;;;22.85;15.30;;;;;;;;;;5095989;28;20446;-60
2022/11/25 06:45:03;;;;;;;25.90;17.38;;;;;;;;;;5096044;28;20207;-60
2022/11/25 06:47:30;;;;;;;25.53;16.70;;;;;;;;;;5095574;28;20648;-61
2022/11/25 06:49:57;;;;;;;19.88;14.02;;;;;;;;;;5096076;28;20821;-60
2022/11/25 06:52:24;;;;;;;24.35;16.58;;;;;;;;;;5095848;28;20191;-60
2022/11/25 06:54:52;;;;;;;26.98;16.30;;;;;;;;;;5095955;28;20647;-60
2022/11/25 06:57:21;;;;;;;28.77;17.63;;;;;;;;;;5095907;28;20192;-60
2022/11/25 06:59:48;;;;;;;25.40;17.27;;;;;;;;;;5095637;28;20724;-61
2022/11/25 07:02:16;;;;;;;30.13;17.23;;;;;;;;;;5095275;28;20450;-60
2022/11/25 07:04:45;;;;;;;21.30;14.73;;;;;;;;;;5095637;28;20478;-60
2022/11/25 07:07:12;;;;;;;26.45;16.48;;;;;;;;;;5095384;28;20202;-61
2022/11/25 07:09:39;;;;;;;24.70;15.25;;;;;;;;;;5095342;28;20287;-60
2022/11/25 07:12:08;;;;;;;25.75;15.85;;;;;;;;;;5095271;28;20278;-60
2022/11/25 07:14:36;;;;;;;22.15;15.30;;;;;;;;;;5095271;28;20227;-60
2022/11/25 07:17:04;;;;;;;22.10;15.70;;;;;;;;;;5095407;28;20191;-60
2022/11/25 07:19:32;;;;;;;23.50;15.73;;;;;;;;;;5094970;28;20446;-60
2022/11/25 07:21:59;;;;;;;22.80;15.30;;;;;;;;;;5095383;28;20196;-61
2022/11/25 07:24:26;;;;;;;24.93;16.13;;;;;;;;;;5094992;28;20485;-59
2022/11/25 07:26:53;;;;;;;23.97;16.23;;;;;;;;;;5095143;28;20513;-59
2022/11/25 07:29:20;;;;;;;24.15;15.90;;;;;;;;;;5094082;28;20454;-59
2022/11/25 07:31:48;;;;;;;21.85;16.42;;;;;;;;;;5094792;28;20302;-59
2022/11/25 07:34:17;;;;;;;23.87;15.93;;;;;;;;;;5095100;28;20196;-58
2022/11/25 07:36:45;;;;;;;23.47;17.13;;;;;;;;;;5094996;28;20465;-59
2022/11/25 07:39:13;;;;;;;26.55;17.55;;;;;;;;;;5094831;28;20575;-59
2022/11/25 07:41:40;;;;;;;21.77;15.30;;;;;;;;;;5095017;28;20651;-60
2022/11/25 07:44:08;;;;;;;19.17;14.30;;;;;;;;;;5095042;28;21018;-59
2022/11/25 07:46:36;;;;;;;21.85;16.08;;;;;;;;;;5094975;28;20449;-59
2022/11/25 07:49:06;;;;;;;20.97;14.40;;;;;;;;;;5094797;28;20262;-59
2022/11/25 07:51:36;;;;;;;19.37;15.07;;;;;;;;;;5094831;28;20456;-59
2022/11/25 07:54:05;;;;;;;20.45;15.20;;;;;;;;;;5094621;28;20453;-59
2022/11/25 07:56:34;;;;;;;22.45;14.55;;;;;;;;;;5094923;28;20659;-59
2022/11/25 07:59:01;;;;;;;21.65;14.70;;;;;;;;;;5094947;28;20211;-59
2022/11/25 08:01:30;;;;;;;22.95;16.20;;;;;;;;;;5094635;28;20198;-59
2022/11/25 08:03:57;;;;;;;21.20;15.52;;;;;;;;;;5094294;28;20216;-59
2022/11/25 08:06:27;;;;;;;20.17;14.50;;;;;;;;;;5094372;28;20200;-59
2022/11/25 08:08:54;;;;;;;17.67;15.30;;;;;;;;;;5094358;28;20450;-58
2022/11/25 08:11:22;;;;;;;17.15;13.85;;;;;;;;;;5094195;28;20936;-59
2022/11/25 08:13:49;;;;;;;27.60;13.07;;;;;;;;;;5094422;28;20298;-59
2022/11/25 08:16:17;;;;;;;19.90;12.37;;;;;;;;;;5093971;28;20630;-59
2022/11/25 08:18:45;;;;;;;25.33;14.13;;;;;;;;;;5094237;28;20481;-59
2022/11/25 08:21:13;;;;;;;17.70;13.15;;;;;;;;;;5093828;28;20450;-59
2022/11/25 08:23:42;;;;;;;15.65;13.63;;;;;;;;;;5094207;28;20787;-59
2022/11/25 08:26:11;;;;;;;37.33;15.05;;;;;;;;;;5094596;28;20218;-59
2022/11/25 08:28:40;;;;;;;28.85;13.05;;;;;;;;;;5094006;28;20286;-59
2022/11/25 08:31:07;;;;;;;23.47;13.50;;;;;;;;;;5093701;28;20188;-59
2022/11/25 08:33:35;;;;;;;22.35;14.55;;;;;;;;;;5093680;28;20453;-59
2022/11/25 08:36:02;;;;;;;16.40;12.50;;;;;;;;;;5093973;28;20634;-59
2022/11/25 08:38:30;;;;;;;15.98;13.18;;;;;;;;;;5093828;28;20453;-59
2022/11/25 08:41:00;;;;;;;21.63;12.13;;;;;;;;;;5092921;28;20195;-60
2022/11/25 08:43:28;;;;;;;13.97;11.90;;;;;;;;;;5094127;28;20198;-59
2022/11/25 08:45:55;;;;;;;15.82;13.63;;;;;;;;;;5093890;28;20446;-59
2022/11/25 08:48:23;;;;;;;15.03;13.40;;;;;;;;;;5093268;28;20234;-59
2022/11/25 08:50:51;;;;;;;18.27;14.23;;;;;;;;;;5093956;28;20457;-59
2022/11/25 08:53:20;;;;;;;15.60;12.90;;;;;;;;;;5094147;28;20202;-60
2022/11/25 08:55:48;;;;;;;13.30;11.70;;;;;;;;;;5093704;28;20486;-59
2022/11/25 08:58:17;;;;;;;13.10;11.70;;;;;;;;;;5094065;28;20453;-59
2022/11/25 09:00:48;;;;;;;13.35;11.85;;;;;;;;;;5093715;28;20456;-60
2022/11/25 09:03:17;;;;;;;14.85;12.23;;;;;;;;;;5093677;28;20191;-59
2022/11/25 09:05:46;;;;;;;14.55;12.57;;;;;;;;;;5093808;28;20314;-59
2022/11/25 09:08:13;;;;;;;15.85;13.10;;;;;;;;;;5093701;28;20191;-59
2022/11/25 09:10:41;;;;;;;13.90;11.60;;;;;;;;;;5093607;28;20196;-59
2022/11/25 09:13:09;;;;;;;13.48;11.90;;;;;;;;;;5093911;28;20451;-59
2022/11/25 09:15:38;;;;;;;16.47;13.07;;;;;;;;;;5093397;28;20196;-59
2022/11/25 09:18:06;;;;;;;18.23;13.03;;;;;;;;;;5093292;28;20944;-59
2022/11/25 09:20:34;;;;;;;17.63;13.37;;;;;;;;;;5093317;28;20454;-59
2022/11/25 09:23:02;;;;;;;17.87;13.23;;;;;;;;;;5093089;28;20868;-59
2022/11/25 09:25:29;;;;;;;17.10;13.60;;;;;;;;;;5093359;28;20576;-59
2022/11/25 09:27:56;;;;;;;15.90;13.20;;;;;;;;;;5093148;28;20457;-60
2022/11/25 09:30:25;;;;;;;16.93;13.10;;;;;;;;;;5093246;28;20474;-59
2022/11/25 09:32:55;;;;;;;15.63;13.13;;;;;;;;;;5093106;28;20445;-59
2022/11/25 09:35:23;;;;;;;17.93;12.90;;;;;;;;;;5093261;28;20538;-60
2022/11/25 09:37:50;;;;;;;18.33;12.73;;;;;;;;;;5093329;28;20454;-59
2022/11/25 09:40:19;;;;;;;19.20;12.40;;;;;;;;;;5092990;28;20451;-59
2022/11/25 09:48:37;;;;;;;15.70;12.90;;;;;;;;;;5092896;28;20517;-59
2022/11/25 09:51:11;;;;;;;16.53;13.00;;;;;;;;;;5094164;28;20471;-59
2022/11/25 09:53:43;;;;;;;18.10;14.43;;;;;;;;;;5097278;28;20936;-59
2022/11/25 09:56:14;;;;;;;17.00;12.80;;;;;;;;;;5097350;28;20454;-59
2022/11/25 09:58:45;;;;;;;20.80;13.80;;;;;;;;;;5097218;28;20632;-59
2022/11/25 10:01:15;;;;;;;20.13;14.37;;;;;;;;;;5097032;28;20504;-59
2022/11/25 10:03:46;;;;;;;19.80;13.97;;;;;;;;;;5096741;28;20478;-59
2022/11/25 10:06:15;;;;;;;17.70;13.87;;;;;;;;;;5096780;28;20442;-59
2022/11/25 10:08:44;;;;;;;16.83;13.30;;;;;;;;;;5096960;28;20447;-59
2022/11/25 10:11:19;;;;;;;25.23;13.67;;;;;;;;;;5096620;28;20446;-58
2022/11/25 10:13:51;;;;;;;17.67;13.90;;;;;;;;;;5096865;28;20445;-58
2022/11/25 10:16:22;;;;;;;16.67;14.70;;;;;;;;;;5096884;28;20189;-59
2022/11/25 10:18:53;;;;;;;19.17;14.50;;;;;;;;;;5096891;28;20450;-59
2022/11/25 10:21:20;;;;;;;20.08;15.13;;;;;;;;;;5096946;28;20454;-59
2022/11/25 10:23:47;;;;;;;18.97;14.47;;;;;;;;;;5096471;28;20648;-59
2022/11/25 10:26:15;;;;;;;18.50;14.40;;;;;;;;;;5096521;28;20453;-59
2022/11/25 10:28:43;;;;;;;19.10;14.03;;;;;;;;;;5096547;28;20450;-58
2022/11/25 10:31:14;;;;;;;19.03;13.80;;;;;;;;;;5096622;28;20504;-59
2022/11/25 10:33:44;;;;;;;19.80;15.07;;;;;;;;;;5096537;28;20536;-59
2022/11/25 10:36:16;;;;;;;18.10;14.60;;;;;;;;;;5096555;28;20455;-59
2022/11/25 10:38:45;;;;;;;23.20;14.63;;;;;;;;;;5096247;28;20866;-59
2022/11/25 10:41:16;;;;;;;18.53;15.20;;;;;;;;;;5096285;28;20536;-59
2022/11/25 10:43:43;;;;;;;18.47;15.13;;;;;;;;;;5096219;28;20481;-60
2022/11/25 10:46:16;;;;;;;25.43;17.03;;;;;;;;;;5096108;28;20481;-59
2022/11/25 10:48:49;;;;;;;20.50;16.20;;;;;;;;;;5096074;28;20812;-59
2022/11/25 10:51:27;;;;;;;22.23;14.48;;;;;;;;;;5096022;28;20453;-59
2022/11/25 10:54:12;;;;;;;19.67;13.93;;;;;;;;;;5096007;28;20195;-59
2022/11/25 10:56:53;;;;;;;21.03;15.40;;;;;;;;;;5095852;28;20443;-59
2022/11/25 10:59:24;;;;;;;19.70;15.53;;;;;;;;;;5095796;28;20522;-58
2022/11/25 11:01:53;;;;;;;22.60;16.70;;;;;;;;;;5096055;28;20875;-59
2022/11/25 11:04:21;;;;;;;19.57;15.50;;;;;;;;;;5094811;28;20821;-59
2022/11/25 11:06:51;;;;;;;20.10;15.93;;;;;;;;;;5095706;28;20460;-59
2022/11/25 11:09:42;;;;;;;22.80;15.33;;;;;;;;;;5095630;28;20443;-59
2022/11/25 11:12:18;;;;;;;20.77;14.50;;;;;;;;;;5085267;28;20464;-59
2022/11/25 11:14:46;;;;;;;19.37;16.00;;;;;;;;;;5095817;28;20461;-59
2022/11/25 11:17:23;;;;;;;22.20;15.50;;;;;;;;;;5095303;28;20935;-59
2022/11/25 11:20:01;;;;;;;19.90;14.47;;;;;;;;;;5095626;28;20545;-59
2022/11/25 11:22:30;;;;;;;18.40;14.90;;;;;;;;;;5095478;28;20500;-59
2022/11/25 11:25:06;;;;;;;20.23;15.93;;;;;;;;;;5095482;28;20501;-59
2022/11/25 11:27:36;;;;;;;24.23;15.70;;;;;;;;;;5095562;28;20779;-59
2022/11/25 11:30:09;;;;;;;19.70;15.30;;;;;;;;;;5095236;28;21013;-58
2022/11/25 11:32:36;;;;;;;22.17;16.60;;;;;;;;;;5095126;28;20524;-59
2022/11/25 11:35:07;;;;;;;19.80;16.10;;;;;;;;;;5095049;28;20501;-59
2022/11/25 11:37:39;;;;;;;21.00;16.17;;;;;;;;;;5095240;28;20455;-59
2022/11/25 11:40:24;;;;;;;18.83;14.87;;;;;;;;;;5095078;28;20465;-58
2022/11/25 11:42:58;;;;;;;17.10;14.07;;;;;;;;;;5094861;28;20458;-59
2022/11/25 11:45:36;;;;;;;22.03;16.00;;;;;;;;;;5094901;28;20493;-59
2022/11/25 11:48:10;;;;;;;18.77;14.33;;;;;;;;;;5094667;28;20471;-59
2022/11/25 11:50:40;;;;;;;19.90;13.73;;;;;;;;;;5094666;28;20447;-59
2022/11/25 11:53:13;;;;;;;19.40;15.20;;;;;;;;;;5094958;28;20447;-59
2022/11/25 11:55:47;;;;;;;17.57;15.77;;;;;;;;;;5094785;28;20451;-59
2022/11/25 11:58:18;;;;;;;20.83;14.77;;;;;;;;;;5094744;28;20457;-59
2022/11/25 12:00:49;;;;;;;15.50;13.10;;;;;;;;;;5094674;28;20465;-59
2022/11/25 12:03:19;;;;;;;17.37;14.03;;;;;;;;;;5094848;28;20447;-60
2022/11/25 12:05:52;;;;;;;21.77;16.20;;;;;;;;;;5094463;28;20479;-59
2022/11/25 12:08:23;;;;;;;18.30;14.23;;;;;;;;;;5094759;28;20447;-59
2022/11/25 12:10:52;;;;;;;20.80;15.33;;;;;;;;;;5094817;28;20443;-59
2022/11/25 12:13:22;;;;;;;22.40;16.67;;;;;;;;;;5094837;28;20451;-59
2022/11/25 12:15:53;;;;;;;25.50;17.53;;;;;;;;;;5094390;28;20861;-58
2022/11/25 12:18:25;;;;;;;21.20;16.40;;;;;;;;;;5094410;28;20492;-59
2022/11/25 12:20:56;;;;;;;23.40;17.10;;;;;;;;;;5094246;28;20949;-59
2022/11/25 12:23:28;;;;;;;24.73;17.60;;;;;;;;;;5094510;28;20279;-59
2022/11/25 12:25:58;;;;;;;24.87;16.73;;;;;;;;;;5094148;28;20485;-59
2022/11/25 12:28:26;;;;;;;22.93;17.10;;;;;;;;;;5094252;28;20462;-58
2022/11/25 12:30:59;;;;;;;21.47;15.70;;;;;;;;;;5094124;28;20803;-59
2022/11/25 12:33:28;;;;;;;24.50;17.70;;;;;;;;;;5094143;28;20561;-59
2022/11/25 12:36:01;;;;;;;26.60;17.97;;;;;;;;;;5093949;28;20501;-59
2022/11/25 12:38:38;;;;;;;22.60;17.40;;;;;;;;;;5094103;28;20446;-58
2022/11/25 12:41:09;;;;;;;27.53;17.33;;;;;;;;;;5094206;28;20458;-59
2022/11/25 12:43:40;;;;;;;19.60;15.50;;;;;;;;;;5094048;28;20454;-59
2022/11/25 12:46:12;;;;;;;21.13;17.03;;;;;;;;;;5093829;28;20513;-59
2022/11/25 12:48:41;;;;;;;20.67;15.77;;;;;;;;;;5093929;28;20994;-59
2022/11/25 12:51:15;;;;;;;20.83;15.30;;;;;;;;;;5094147;28;20447;-58
2022/11/25 12:53:48;;;;;;;21.30;16.70;;;;;;;;;;5094081;28;20977;-59
2022/11/25 12:56:20;;;;;;;24.93;18.17;;;;;;;;;;5093787;28;20481;-59
2022/11/25 12:58:52;;;;;;;24.43;18.20;;;;;;;;;;5093836;28;20523;-61
2022/11/25 13:01:32;;;;;;;28.17;19.90;;;;;;;;;;5093809;28;20486;-59
2022/11/25 13:04:18;;;;;;;34.00;20.57;;;;;;;;;;5093784;28;20454;-59
2022/11/25 13:07:10;;;;;;;31.93;21.00;;;;;;;;;;5093597;28;20496;-59
2022/11/25 13:09:47;;;;;;;32.70;22.37;;;;;;;;;;5083120;28;20451;-59
2022/11/25 13:12:28;;;;;;;29.90;20.97;;;;;;;;;;5093353;28;20511;-59
2022/11/25 13:15:13;;;;;;;32.70;22.83;;;;;;;;;;5091927;28;20529;-59
2022/11/25 13:17:42;;;;;;;35.20;21.70;;;;;;;;;;5086901;28;20921;-61
2022/11/25 13:20:26;;;;;;;37.90;23.93;;;;;;;;;;5096364;28;21023;-60
2022/11/25 13:23:01;;;;;;;31.40;22.27;;;;;;;;;;5095419;28;20485;-61
2022/11/25 13:25:30;;;;;;;33.93;22.20;;;;;;;;;;5113192;28;20484;-60
2022/11/25 13:27:58;;;;;;;30.70;24.07;;;;;;;;;;5117812;28;20453;-61
2022/11/25 13:30:36;;;;;;;30.07;22.30;;;;;;;;;;5117633;28;20809;-60
2022/11/25 13:33:30;;;;;;;34.77;22.17;;;;;;;;;;5117886;28;20540;-60
2022/11/25 13:35:57;;;;;;;34.40;22.40;;;;;;;;;;5117161;28;20505;-61
2022/11/25 13:38:38;;;;;;;40.03;22.03;;;;;;;;;;5117762;28;20450;-63
2022/11/25 13:41:21;;;;;;;33.90;21.57;;;;;;;;;;5117826;28;20990;-61
2022/11/25 13:43:56;;;;;;;37.47;23.40;;;;;;;;;;5118000;28;20448;-60
2022/11/25 13:46:29;;;;;;;28.67;20.53;;;;;;;;;;5117042;28;20505;-59
2022/11/25 13:48:56;;;;;;;34.17;23.10;;;;;;;;;;5097150;28;20547;-62
2022/11/25 13:51:25;;;;;;;31.97;21.70;;;;;;;;;;5076998;28;20450;-60
2022/11/25 13:53:54;;;;;;;29.73;22.07;;;;;;;;;;5112972;28;20960;-54
2022/11/25 13:56:26;;;;;;;38.60;22.60;;;;;;;;;;5117035;28;20452;-59
2022/11/25 13:59:12;;;;;;;33.87;22.87;;;;;;;;;;5105277;28;20445;-62
2022/11/25 14:01:42;;;;;;;33.43;22.27;;;;;;;;;;5076581;28;20546;-62
2022/11/25 14:04:10;;;;;;;30.57;22.60;;;;;;;;;;5076520;28;20451;-58
2022/11/25 14:06:50;;;;;;;36.38;22.40;;;;;;;;;;5075978;28;20461;-58
2022/11/25 14:09:22;;;;;;;34.53;21.23;;;;;;;;;;5076324;28;20242;-60
2022/11/25 14:12:03;;;;;;;31.83;21.43;;;;;;;;;;5076191;28;20533;-60
2022/11/25 14:14:44;;;;;;;37.00;21.17;;;;;;;;;;5076395;28;20849;-60
2022/11/25 14:17:24;;;;;;;30.63;20.50;;;;;;;;;;5074883;28;20533;-60
2022/11/25 14:20:04;;;;;;;33.40;19.87;;;;;;;;;;5076517;28;20451;-60
2022/11/25 14:22:41;;;;;;;28.60;19.03;;;;;;;;;;5075345;28;20451;-59
2022/11/25 14:25:15;;;;;;;27.30;20.37;;;;;;;;;;5076059;28;20450;-59
2022/11/25 14:27:46;;;;;;;26.20;19.00;;;;;;;;;;5075946;28;20458;-60
2022/11/25 14:30:14;;;;;;;25.60;19.40;;;;;;;;;;5075678;28;20855;-59
2022/11/25 14:32:44;;;;;;;28.30;20.50;;;;;;;;;;5075609;28;20539;-59
2022/11/25 14:35:14;;;;;;;30.90;20.23;;;;;;;;;;5075797;28;20455;-59
2022/11/25 14:37:44;;;;;;;31.07;20.47;;;;;;;;;;5074475;28;20448;-59
2022/11/25 14:40:14;;;;;;;25.97;19.17;;;;;;;;;;5075732;28;20439;-59
2022/11/25 14:42:44;;;;;;;24.30;18.47;;;;;;;;;;5075534;28;20534;-59